Terminal Aerodrome Forecast
Issued by NWS Medford, OR

Home | Current Version | Previous Version | Text Only | Print | Product List | Glossary On
Versions: 1 2 3 4 5 6 7 8 9 10 11 12 13 14 15 16 17 18
000
FTUS46 KMFR 231700
TAFMFR
TAF
KMFR 231736Z 2318/2418 31006KT P6SM -SHRA BKN030 OVC060
     FM232100 31014G21KT P6SM VCSH BKN060
     FM240400 34004KT P6SM SCT050=

USA.gov is the U.S. government's official web portal to all federal, state and local government web resources and services.